createdAt,value
2017-11-05T00:02:19.183Z,9.31
2017-11-05T00:04:47.503Z,9.31
2017-11-05T00:07:16.587Z,9.27
2017-11-05T00:09:44.881Z,9.22
2017-11-05T00:12:13.197Z,9.17
2017-11-05T00:14:41.528Z,9.16
2017-11-05T00:17:10.611Z,9.13
2017-11-05T00:19:38.905Z,9.16
2017-11-05T00:22:08.003Z,9.11
2017-11-05T00:24:37.074Z,9.12
2017-11-05T00:27:05.385Z,9.10
2017-11-05T00:29:33.691Z,9.12
2017-11-05T00:32:02.031Z,9.14
2017-11-05T00:34:31.097Z,9.17
2017-11-05T00:36:59.406Z,9.16
2017-11-05T00:39:28.478Z,9.22
2017-11-05T00:41:56.771Z,9.24
2017-11-05T00:44:25.118Z,9.32
2017-11-05T00:46:53.421Z,9.32
2017-11-05T00:49:21.727Z,9.31
2017-11-05T00:51:50.029Z,9.35
2017-11-05T00:54:18.348Z,9.38
2017-11-05T00:56:46.655Z,9.40
2017-11-05T00:59:14.959Z,9.41
2017-11-05T01:01:43.262Z,9.46
2017-11-05T01:04:12.156Z,9.48
2017-11-05T01:06:40.467Z,9.44
2017-11-05T01:09:08.797Z,9.46
2017-11-05T01:11:37.094Z,9.50
2017-11-05T01:14:05.393Z,9.58
2017-11-05T01:16:34.453Z,9.57
2017-11-05T01:19:02.772Z,9.57
2017-11-05T01:21:31.074Z,9.54
2017-11-05T01:23:59.407Z,9.51
2017-11-05T01:26:28.470Z,9.48
2017-11-05T01:28:56.817Z,9.44
2017-11-05T01:31:25.119Z,9.42
2017-11-05T01:33:53.424Z,9.38
2017-11-05T01:36:21.717Z,9.37
2017-11-05T01:38:50.852Z,9.34
2017-11-05T01:41:19.450Z,9.33
2017-11-05T01:43:47.771Z,9.36
2017-11-05T01:46:16.838Z,9.41
2017-11-05T01:48:45.146Z,9.41
2017-11-05T01:51:14.205Z,9.42
2017-11-05T01:53:42.530Z,9.36
2017-11-05T01:56:10.844Z,9.30
2017-11-05T01:58:39.146Z,9.24
2017-11-05T02:01:07.434Z,9.24
2017-11-05T02:03:35.742Z,9.21
2017-11-05T02:06:04.034Z,9.19
2017-11-05T02:08:32.333Z,9.20
2017-11-05T02:11:00.622Z,9.18
2017-11-05T02:13:28.938Z,9.19
2017-11-05T02:15:58.031Z,9.26
2017-11-05T02:18:27.111Z,9.31
2017-11-05T02:20:55.413Z,9.31
2017-11-05T02:23:24.511Z,9.28
2017-11-05T02:25:52.909Z,9.22
2017-11-05T02:28:21.213Z,9.25
2017-11-05T02:30:49.505Z,9.28
2017-11-05T02:33:17.835Z,9.27
2017-11-05T02:35:46.130Z,9.22
2017-11-05T02:38:14.419Z,9.21
2017-11-05T02:40:42.747Z,9.19
2017-11-05T02:43:11.059Z,9.17
2017-11-05T02:45:39.374Z,9.11
2017-11-05T02:48:07.687Z,9.08
2017-11-05T02:50:36.006Z,9.03
2017-11-05T02:53:04.315Z,9.00
2017-11-05T02:55:33.410Z,8.99
2017-11-05T02:58:02.494Z,8.95
2017-11-05T03:00:30.802Z,9.01
2017-11-05T03:02:59.859Z,9.05
2017-11-05T03:05:28.165Z,9.15
2017-11-05T03:07:57.223Z,9.24
2017-11-05T03:10:25.535Z,9.28
2017-11-05T03:12:54.598Z,9.33
2017-11-05T03:15:22.957Z,9.34
2017-11-05T03:17:51.262Z,9.33
2017-11-05T03:20:19.576Z,9.35
2017-11-05T03:22:47.877Z,9.29
2017-11-05T03:25:16.186Z,9.26
2017-11-05T03:27:44.482Z,9.20
2017-11-05T03:30:12.801Z,9.14
2017-11-05T03:32:41.093Z,9.16
2017-11-05T03:35:09.398Z,9.19
2017-11-05T03:37:37.690Z,9.18
2017-11-05T03:40:05.998Z,9.15
2017-11-05T03:42:34.297Z,9.11
2017-11-05T03:45:02.606Z,9.08
2017-11-05T03:47:30.911Z,9.08
2017-11-05T03:49:59.991Z,9.03
2017-11-05T03:52:28.314Z,9.01
2017-11-05T03:54:56.616Z,8.97
2017-11-05T03:57:24.915Z,8.93
2017-11-05T03:59:53.233Z,8.89
2017-11-05T04:02:21.526Z,8.86
2017-11-05T04:04:49.832Z,8.85
2017-11-05T04:07:18.151Z,8.79
2017-11-05T04:09:47.207Z,8.77
2017-11-05T04:12:15.513Z,8.73
2017-11-05T04:14:44.579Z,8.74
2017-11-05T04:17:12.877Z,8.73
2017-11-05T04:19:41.955Z,8.69
2017-11-05T04:22:10.260Z,8.65
2017-11-05T04:24:39.313Z,8.62
2017-11-05T04:27:07.634Z,8.58
2017-11-05T04:29:36.700Z,8.52
2017-11-05T04:32:05.004Z,8.51
2017-11-05T04:34:34.066Z,8.53
2017-11-05T04:37:02.384Z,8.58
2017-11-05T04:39:30.681Z,8.63
2017-11-05T04:41:58.990Z,8.71
2017-11-05T04:44:27.290Z,8.77
2017-11-05T04:46:55.604Z,8.79
2017-11-05T04:49:23.901Z,8.85
2017-11-05T04:51:52.201Z,8.90
2017-11-05T04:54:20.489Z,8.95
2017-11-05T04:56:48.793Z,9.01
2017-11-05T04:59:17.853Z,9.10
2017-11-05T05:01:46.145Z,9.18
2017-11-05T05:04:14.445Z,9.19
2017-11-05T05:06:43.517Z,9.27
2017-11-05T05:09:11.815Z,9.27
2017-11-05T05:11:40.889Z,9.32
2017-11-05T05:14:09.182Z,9.35
2017-11-05T05:16:38.246Z,9.36
2017-11-05T05:19:06.537Z,9.35
2017-11-05T05:21:34.847Z,9.38
2017-11-05T05:24:03.150Z,9.37
2017-11-05T05:26:31.470Z,9.34
2017-11-05T05:28:59.759Z,9.33
2017-11-05T05:31:28.845Z,9.36
2017-11-05T05:33:57.148Z,9.47
2017-11-05T05:36:26.221Z,9.61
2017-11-05T05:38:54.523Z,9.68
2017-11-05T05:41:22.831Z,9.80
2017-11-05T05:43:51.119Z,9.83
2017-11-05T05:46:19.437Z,9.87
2017-11-05T05:48:48.505Z,9.88
2017-11-05T05:51:16.814Z,9.88
2017-11-05T05:53:45.877Z,9.93
2017-11-05T05:56:14.193Z,9.82
2017-11-05T05:58:43.254Z,9.83
2017-11-05T06:01:11.563Z,9.78
2017-11-05T06:03:40.626Z,9.79
2017-11-05T06:06:08.943Z,9.87
2017-11-05T06:08:37.237Z,9.93
2017-11-05T06:11:05.535Z,9.98
2017-11-05T06:13:33.836Z,9.90
2017-11-05T06:16:02.144Z,9.97
2017-11-05T06:18:31.202Z,9.94
2017-11-05T06:20:59.544Z,9.98
2017-11-05T06:23:27.837Z,9.92
2017-11-05T06:25:56.147Z,9.97
2017-11-05T06:28:24.432Z,9.98
2017-11-05T06:30:53.502Z,10.06
2017-11-05T06:33:21.864Z,10.01
2017-11-05T06:35:50.191Z,10.09
2017-11-05T06:38:19.256Z,10.16
2017-11-05T06:40:47.558Z,10.22
2017-11-05T06:43:16.646Z,10.27
2017-11-05T06:45:44.949Z,10.29
2017-11-05T06:48:13.261Z,10.37
2017-11-05T06:50:41.565Z,10.42
2017-11-05T06:53:09.898Z,10.41
2017-11-05T06:55:38.201Z,10.47
2017-11-05T06:58:06.527Z,10.51
2017-11-05T07:00:35.593Z,10.50
2017-11-05T07:03:03.931Z,10.47
2017-11-05T07:05:32.245Z,10.58
2017-11-05T07:08:00.557Z,10.54
2017-11-05T07:10:29.657Z,10.57
2017-11-05T07:12:57.964Z,10.61
2017-11-05T07:15:26.256Z,10.60
2017-11-05T07:17:54.562Z,10.68
2017-11-05T07:20:22.870Z,10.71
2017-11-05T07:22:51.189Z,10.69
2017-11-05T07:25:19.956Z,10.75
2017-11-05T07:27:48.270Z,10.84
2017-11-05T07:30:16.569Z,10.79
2017-11-05T07:32:45.643Z,10.81
2017-11-05T07:35:13.968Z,10.75
2017-11-05T07:37:42.294Z,10.80
2017-11-05T07:40:10.597Z,10.77
2017-11-05T07:42:39.687Z,10.72
2017-11-05T07:45:08.786Z,10.74
2017-11-05T07:47:37.874Z,10.70
2017-11-05T07:50:06.953Z,10.71
2017-11-05T07:52:35.265Z,10.65
2017-11-05T07:55:03.595Z,10.65
2017-11-05T07:57:31.931Z,10.76
2017-11-05T08:00:00.229Z,10.71
2017-11-05T08:02:28.537Z,10.69
2017-11-05T08:04:56.837Z,10.66
2017-11-05T08:07:25.925Z,10.59
2017-11-05T08:09:54.226Z,10.64
2017-11-05T08:12:23.306Z,10.77
2017-11-05T08:14:52.373Z,10.78
2017-11-05T08:17:20.710Z,10.84
2017-11-05T08:19:49.017Z,10.88
2017-11-05T08:22:17.338Z,10.80
2017-11-05T08:24:46.411Z,10.86
2017-11-05T08:27:14.740Z,11.02
2017-11-05T08:29:43.041Z,10.94
2017-11-05T08:32:11.370Z,11.03
2017-11-05T08:34:40.449Z,11.11
2017-11-05T08:37:08.769Z,11.15
2017-11-05T08:39:37.074Z,11.25
2017-11-05T08:42:05.372Z,11.24
2017-11-05T08:44:33.681Z,11.18
2017-11-05T08:47:02.009Z,11.15
2017-11-05T08:49:30.328Z,11.07
2017-11-05T08:51:59.397Z,11.03
2017-11-05T08:54:27.718Z,11.04
2017-11-05T08:56:56.016Z,11.01
2017-11-05T08:59:24.333Z,11.13
2017-11-05T09:01:52.632Z,11.06
2017-11-05T09:04:20.954Z,10.99
2017-11-05T09:06:49.257Z,10.83
2017-11-05T09:09:17.800Z,10.79
2017-11-05T09:11:46.109Z,10.83
2017-11-05T09:14:14.425Z,10.75
2017-11-05T09:16:43.481Z,10.78
2017-11-05T09:19:11.794Z,10.76
2017-11-05T09:24:15.380Z,10.86
2017-11-05T09:26:43.688Z,10.95
2017-11-05T09:29:12.769Z,11.05
2017-11-05T09:31:41.088Z,10.95
2017-11-05T09:34:09.392Z,11.05
2017-11-05T09:36:37.693Z,11.20
2017-11-05T09:39:06.020Z,11.20
2017-11-05T09:41:34.318Z,11.24
2017-11-05T09:44:02.618Z,11.10
2017-11-05T09:46:30.933Z,11.02
2017-11-05T09:48:59.277Z,11.18
2017-11-05T09:51:27.581Z,11.13
2017-11-05T09:53:56.667Z,11.08
2017-11-05T09:56:25.754Z,11.05
2017-11-05T09:58:54.062Z,11.20
2017-11-05T10:01:22.352Z,10.99
2017-11-05T10:03:50.675Z,10.87
2017-11-05T10:06:18.985Z,10.97
2017-11-05T10:08:48.074Z,11.13
2017-11-05T10:11:17.137Z,11.18
2017-11-05T10:13:45.464Z,11.17
2017-11-05T10:16:13.782Z,11.26
2017-11-05T10:18:42.861Z,11.31
2017-11-05T10:21:11.158Z,11.40
2017-11-05T10:23:39.476Z,11.73
2017-11-05T10:26:08.541Z,11.77
2017-11-05T10:28:36.843Z,11.95
2017-11-05T10:31:05.924Z,12.10
2017-11-05T10:33:34.222Z,12.20
2017-11-05T10:36:03.295Z,11.86
2017-11-05T10:38:37.863Z,11.98
2017-11-05T10:41:06.174Z,11.83
2017-11-05T10:43:34.478Z,12.05
2017-11-05T10:46:02.797Z,12.01
2017-11-05T10:48:31.097Z,12.14
2017-11-05T10:50:59.412Z,12.19
2017-11-05T10:53:28.476Z,12.08
2017-11-05T10:55:56.776Z,11.92
2017-11-05T10:58:25.069Z,11.86
2017-11-05T11:00:54.145Z,11.89
2017-11-05T11:03:22.441Z,11.86
2017-11-05T11:05:51.516Z,11.66
2017-11-05T11:08:19.830Z,11.66
2017-11-05T11:10:48.165Z,11.69
2017-11-05T11:13:16.466Z,11.44
2017-11-05T11:15:44.809Z,11.46
2017-11-05T11:18:13.117Z,11.51
2017-11-05T11:20:42.196Z,11.49
2017-11-05T11:23:10.501Z,11.54
2017-11-05T11:25:38.813Z,11.34
2017-11-05T11:28:07.120Z,11.27
2017-11-05T11:30:35.428Z,11.19
2017-11-05T11:33:04.497Z,11.18
2017-11-05T11:35:32.813Z,11.20
2017-11-05T11:38:01.105Z,11.20
2017-11-05T11:40:29.417Z,11.13
2017-11-05T11:42:57.727Z,11.18
2017-11-05T11:45:26.814Z,11.08
2017-11-05T11:47:55.880Z,11.16
2017-11-05T11:50:24.204Z,11.22
2017-11-05T11:52:53.281Z,11.14
2017-11-05T11:55:22.360Z,11.13
2017-11-05T11:57:50.673Z,11.07
2017-11-05T12:00:19.741Z,11.07
2017-11-05T12:02:48.049Z,11.12
2017-11-05T12:05:16.398Z,11.21
2017-11-05T12:07:45.490Z,11.22
2017-11-05T12:10:13.812Z,11.29
2017-11-05T12:12:42.135Z,11.30
2017-11-05T12:15:10.433Z,11.35
2017-11-05T12:17:39.524Z,11.19
2017-11-05T12:20:07.825Z,11.14
2017-11-05T12:22:36.133Z,11.10
2017-11-05T12:25:04.476Z,11.06
2017-11-05T12:27:33.555Z,11.06
2017-11-05T12:30:02.649Z,11.11
2017-11-05T12:32:31.737Z,11.10
2017-11-05T12:35:00.093Z,10.96
2017-11-05T12:37:28.414Z,10.88
2017-11-05T12:39:56.778Z,10.92
2017-11-05T12:42:25.850Z,10.85
2017-11-05T12:44:54.164Z,10.83
2017-11-05T12:47:23.273Z,10.88
2017-11-05T12:49:51.560Z,10.80
2017-11-05T12:52:19.919Z,10.83
2017-11-05T12:54:48.219Z,10.88
2017-11-05T12:57:16.528Z,10.91
2017-11-05T12:59:44.828Z,10.97
2017-11-05T13:02:13.137Z,10.90
2017-11-05T13:04:41.490Z,10.79
2017-11-05T13:07:10.597Z,10.75
2017-11-05T13:09:39.697Z,10.65
2017-11-05T13:12:08.001Z,10.58
2017-11-05T13:14:36.310Z,10.63
2017-11-05T13:17:04.658Z,10.77
2017-11-05T13:19:32.981Z,10.80
2017-11-05T13:22:01.277Z,10.98
2017-11-05T13:24:30.336Z,10.91
2017-11-05T13:26:58.645Z,10.95
2017-11-05T13:29:27.717Z,10.87
2017-11-05T13:31:56.070Z,10.85
2017-11-05T13:34:24.384Z,10.71
2017-11-05T13:36:52.685Z,10.81
2017-11-05T13:39:21.753Z,10.69
2017-11-05T13:41:50.100Z,10.70
2017-11-05T13:44:18.421Z,10.70
2017-11-05T13:46:47.504Z,10.49
2017-11-05T13:49:15.810Z,10.25
2017-11-05T13:51:44.152Z,10.08
2017-11-05T13:54:12.468Z,10.06
2017-11-05T13:56:40.772Z,9.96
2017-11-05T13:59:09.095Z,10.05
2017-11-05T14:01:38.155Z,10.00
2017-11-05T14:04:06.454Z,9.99
2017-11-05T14:06:34.755Z,9.99
2017-11-05T14:09:03.909Z,10.01
2017-11-05T14:11:32.247Z,9.92
2017-11-05T14:14:00.551Z,9.92
2017-11-05T14:16:28.901Z,9.87
2017-11-05T14:18:57.266Z,9.94
2017-11-05T14:21:26.326Z,9.88
2017-11-05T14:23:54.661Z,9.85
2017-11-05T14:26:22.949Z,9.82
2017-11-05T14:28:51.246Z,9.84
2017-11-05T14:31:19.547Z,9.79
2017-11-05T14:33:47.865Z,9.77
2017-11-05T14:36:16.197Z,9.80
2017-11-05T14:38:44.498Z,9.68
2017-11-05T14:41:13.549Z,9.65
2017-11-05T14:43:42.621Z,9.66
2017-11-05T14:46:10.932Z,9.63
2017-11-05T14:48:39.246Z,10.04
2017-11-05T14:51:08.301Z,9.78
2017-11-05T14:53:36.600Z,9.68
2017-11-05T14:56:04.907Z,9.64
2017-11-05T14:58:33.242Z,9.64
2017-11-05T15:01:01.551Z,9.66
2017-11-05T15:03:29.858Z,9.61
2017-11-05T15:05:58.162Z,9.63
2017-11-05T15:08:27.221Z,9.52
2017-11-05T15:10:55.525Z,9.47
2017-11-05T15:13:23.828Z,9.42
2017-11-05T15:15:52.133Z,9.37
2017-11-05T15:18:21.253Z,9.34
2017-11-05T15:20:49.558Z,9.32
2017-11-05T15:23:17.849Z,9.28
2017-11-05T15:25:46.169Z,9.31
2017-11-05T15:28:14.457Z,9.32
2017-11-05T15:30:42.753Z,9.30
2017-11-05T15:33:11.062Z,9.25
2017-11-05T15:35:39.417Z,9.24
2017-11-05T15:38:07.723Z,9.24
2017-11-05T15:40:36.855Z,9.27
2017-11-05T15:43:05.146Z,9.23
2017-11-05T15:45:33.454Z,9.28
2017-11-05T15:48:01.761Z,9.30
2017-11-05T15:50:30.851Z,9.39
2017-11-05T15:52:59.960Z,9.38
2017-11-05T15:55:29.048Z,9.42
2017-11-05T15:57:58.122Z,9.40
2017-11-05T16:00:26.481Z,9.36
2017-11-05T16:02:54.788Z,9.36
2017-11-05T16:05:23.087Z,9.38
2017-11-05T16:07:51.434Z,9.33
2017-11-05T16:10:19.749Z,9.28
2017-11-05T16:12:48.043Z,9.22
2017-11-05T16:15:16.417Z,9.14
2017-11-05T16:17:44.764Z,9.24
2017-11-05T16:20:13.824Z,9.21
2017-11-05T16:22:42.197Z,9.19
2017-11-05T16:25:10.485Z,9.17
2017-11-05T16:27:38.845Z,9.18
2017-11-05T16:30:07.144Z,9.14
2017-11-05T16:32:35.508Z,9.00
2017-11-05T16:35:03.852Z,9.21
2017-11-05T16:37:32.218Z,9.11
2017-11-05T16:40:01.273Z,9.08
2017-11-05T16:42:29.636Z,9.05
2017-11-05T16:44:57.926Z,9.04
2017-11-05T16:47:26.236Z,9.00
2017-11-05T16:49:54.528Z,9.01
2017-11-05T16:52:22.828Z,8.98
2017-11-05T16:54:51.129Z,8.99
2017-11-05T16:57:19.448Z,8.94
2017-11-05T16:59:48.569Z,8.92
2017-11-05T17:02:16.889Z,8.95
2017-11-05T17:04:45.195Z,8.94
2017-11-05T17:07:14.278Z,8.94
2017-11-05T17:09:43.394Z,8.97
2017-11-05T17:12:11.700Z,8.97
2017-11-05T17:14:40.048Z,8.96
2017-11-05T17:17:09.113Z,8.99
2017-11-05T17:19:37.466Z,8.96
2017-11-05T17:22:05.848Z,9.04
2017-11-05T17:24:34.145Z,9.00
2017-11-05T17:27:02.440Z,9.00
2017-11-05T17:29:31.555Z,9.00
2017-11-05T17:31:59.881Z,8.99
2017-11-05T17:34:28.190Z,9.00
2017-11-05T17:36:57.313Z,8.95
2017-11-05T17:39:25.671Z,8.98
2017-11-05T17:41:54.736Z,8.99
2017-11-05T17:44:23.165Z,9.00
2017-11-05T17:46:51.477Z,8.98
2017-11-05T17:49:20.136Z,8.97
2017-11-05T17:51:48.509Z,8.99
2017-11-05T17:54:16.819Z,8.99
2017-11-05T17:56:45.149Z,8.95
2017-11-05T17:59:14.214Z,8.99
2017-11-05T18:01:42.522Z,9.00
2017-11-05T18:04:10.850Z,8.96
2017-11-05T18:06:39.160Z,8.93
2017-11-05T18:09:08.281Z,8.94
2017-11-05T18:11:36.605Z,8.95
2017-11-05T18:14:04.960Z,8.95
2017-11-05T18:16:33.272Z,8.98
2017-11-05T18:19:01.565Z,9.01
2017-11-05T18:21:30.700Z,8.99
2017-11-05T18:23:58.997Z,9.01
2017-11-05T18:26:27.311Z,8.95
2017-11-05T18:28:55.673Z,8.97
2017-11-05T18:31:24.006Z,8.98
2017-11-05T18:33:52.306Z,8.95
2017-11-05T18:36:20.601Z,8.94
2017-11-05T18:38:48.969Z,8.94
2017-11-05T18:41:17.283Z,8.91
2017-11-05T18:43:46.370Z,8.94
2017-11-05T18:46:14.678Z,8.94
2017-11-05T18:48:43.040Z,8.94
2017-11-05T18:51:12.155Z,8.94
2017-11-05T18:53:40.472Z,8.91
2017-11-05T18:56:08.792Z,8.90
2017-11-05T18:58:37.925Z,8.87
2017-11-05T19:01:06.225Z,8.88
2017-11-05T19:03:34.617Z,8.83
2017-11-05T19:06:02.981Z,8.82
2017-11-05T19:08:31.327Z,8.80
2017-11-05T19:10:59.643Z,8.80
2017-11-05T19:13:28.021Z,8.83
2017-11-05T19:15:56.330Z,8.83
2017-11-05T19:18:25.457Z,8.82
2017-11-05T19:20:53.804Z,8.70
2017-11-05T19:23:22.879Z,8.78
2017-11-05T19:25:51.208Z,8.77
2017-11-05T19:28:19.497Z,8.76
2017-11-05T19:30:47.796Z,8.75
2017-11-05T19:33:16.174Z,8.75
2017-11-05T19:35:44.468Z,8.67
2017-11-05T19:38:12.849Z,8.70
2017-11-05T19:40:41.206Z,8.72
2017-11-05T19:43:09.525Z,8.68
2017-11-05T19:45:38.644Z,8.73
2017-11-05T19:48:07.025Z,8.67
2017-11-05T19:50:35.435Z,8.64
2017-11-05T19:53:03.814Z,8.62
2017-11-05T19:55:32.176Z,8.62
2017-11-05T19:58:00.536Z,8.58
2017-11-05T20:00:28.888Z,8.55
2017-11-05T20:02:57.269Z,8.54
2017-11-05T20:05:26.346Z,8.48
2017-11-05T20:07:54.717Z,8.31
2017-11-05T20:10:23.085Z,8.46
2017-11-05T20:12:51.452Z,8.42
2017-11-05T20:15:19.813Z,8.43
2017-11-05T20:17:48.169Z,8.43
2017-11-05T20:20:16.525Z,8.41
2017-11-05T20:22:45.644Z,8.38
2017-11-05T20:25:13.955Z,8.36
2017-11-05T20:27:42.265Z,8.38
2017-11-05T20:30:10.566Z,8.31
2017-11-05T20:32:39.698Z,8.28
2017-11-05T20:35:08.056Z,8.29
2017-11-05T20:37:36.408Z,8.24
2017-11-05T20:40:05.524Z,8.22
2017-11-05T20:42:33.834Z,8.20
2017-11-05T20:45:02.153Z,8.18
2017-11-05T20:47:31.275Z,8.20
2017-11-05T20:49:59.653Z,8.18
2017-11-05T20:52:27.952Z,8.12
2017-11-05T20:54:56.343Z,8.07
2017-11-05T20:57:24.699Z,8.06
2017-11-05T20:59:53.061Z,8.00
2017-11-05T21:02:22.188Z,7.99
2017-11-05T21:04:50.501Z,7.98
2017-11-05T21:07:18.854Z,7.95
2017-11-05T21:09:47.200Z,7.92
2017-11-05T21:12:15.549Z,7.90
2017-11-05T21:14:44.663Z,7.91
2017-11-05T21:17:13.019Z,7.93
2017-11-05T21:19:41.389Z,7.91
2017-11-05T21:22:09.834Z,7.86
2017-11-05T21:24:38.225Z,7.84
2017-11-05T21:27:06.595Z,7.83
2017-11-05T21:29:34.912Z,7.81
2017-11-05T21:32:03.230Z,7.85
2017-11-05T21:34:31.597Z,7.82
2017-11-05T21:36:59.901Z,7.84
2017-11-05T21:39:28.261Z,7.81
2017-11-05T21:41:56.635Z,7.84
2017-11-05T21:44:25.013Z,7.82
2017-11-05T21:46:53.360Z,7.81
2017-11-05T21:49:21.677Z,7.80
2017-11-05T21:51:49.971Z,7.77
2017-11-05T21:54:18.288Z,7.78
2017-11-05T21:56:46.605Z,7.79
2017-11-05T21:59:15.806Z,7.80
2017-11-05T22:01:44.117Z,7.86
2017-11-05T22:04:12.879Z,7.81
2017-11-05T22:06:41.221Z,7.80
2017-11-05T22:09:10.305Z,7.80
2017-11-05T22:11:38.629Z,7.75
2017-11-05T22:14:06.951Z,7.76
2017-11-05T22:16:35.258Z,7.74
2017-11-05T22:19:04.900Z,7.71
2017-11-05T22:21:33.217Z,7.70
2017-11-05T22:24:01.589Z,7.73
2017-11-05T22:26:30.689Z,7.70
2017-11-05T22:28:59.013Z,7.68
2017-11-05T22:31:27.325Z,7.65
2017-11-05T22:33:55.645Z,7.68
2017-11-05T22:36:24.709Z,7.66
2017-11-05T22:38:53.025Z,7.66
2017-11-05T22:41:21.340Z,7.62
2017-11-05T22:43:49.644Z,7.63
2017-11-05T22:46:17.962Z,7.59
2017-11-05T22:48:46.273Z,7.59
2017-11-05T22:51:14.624Z,7.56
2017-11-05T22:53:42.942Z,7.56
2017-11-05T22:56:11.242Z,7.57
2017-11-05T22:58:39.565Z,7.56
2017-11-05T23:01:07.870Z,7.52
2017-11-05T23:03:36.185Z,7.53
2017-11-05T23:06:05.266Z,7.51
2017-11-05T23:08:33.591Z,7.49
2017-11-05T23:11:01.897Z,7.45
2017-11-05T23:13:30.985Z,7.40
2017-11-05T23:15:59.320Z,7.38
2017-11-05T23:18:27.626Z,7.36
2017-11-05T23:20:55.933Z,7.36
2017-11-05T23:23:24.230Z,7.32
2017-11-05T23:25:53.309Z,7.28
2017-11-05T23:28:21.621Z,7.26
2017-11-05T23:30:50.705Z,7.23
2017-11-05T23:33:19.773Z,7.21
2017-11-05T23:35:48.786Z,7.22
2017-11-05T23:38:17.868Z,7.19
2017-11-05T23:40:46.957Z,7.19
2017-11-05T23:43:15.251Z,7.17
2017-11-05T23:45:44.328Z,7.11
2017-11-05T23:48:12.637Z,7.12
2017-11-05T23:50:41.714Z,7.10
2017-11-05T23:53:10.021Z,7.03
2017-11-05T23:55:39.095Z,7.04
2017-11-05T23:58:08.186Z,7.07
